Time;durP1;ratioP1;P1;durP2;ratioP2;P2;SDS_P1;SDS_P2;PMS_P1;PMS_P2;Temp;Humidity;BMP_temperature;BMP_pressure;BME280_temperature;BME280_humidity;BME280_pressure;Samples;Min_cycle;Max_cycle;Signal;HPM_P1;HPM_P2
2022/06/15 00:00:59;;;;;;;26.40;24.02;;;11.70;99.90;;;;;;5020309;28;20053;-72
2022/06/15 00:03:31;;;;;;;26.15;23.95;;;11.70;99.90;;;;;;5021233;28;20053;-72
2022/06/15 00:06:11;;;;;;;26.08;24.10;;;11.70;99.90;;;;;;5032126;28;20054;-73
2022/06/15 00:08:40;;;;;;;26.15;24.23;;;11.70;99.90;;;;;;5019464;28;20050;-72
2022/06/15 00:11:14;;;;;;;26.52;24.33;;;11.60;99.90;;;;;;5022219;28;20041;-72
2022/06/15 00:13:41;;;;;;;26.13;23.93;;;11.50;99.90;;;;;;5038127;28;20471;-72
2022/06/15 00:16:09;;;;;;;26.23;24.08;;;11.40;99.90;;;;;;5020692;28;20060;-72
2022/06/15 00:18:36;;;;;;;26.95;24.95;;;11.40;99.90;;;;;;5021445;28;20068;-72
2022/06/15 00:21:04;;;;;;;26.65;24.63;;;11.30;99.90;;;;;;5038463;28;20059;-72
2022/06/15 00:23:32;;;;;;;25.73;24.05;;;11.20;99.90;;;;;;5023160;28;20437;-72
2022/06/15 00:25:59;;;;;;;26.23;24.05;;;11.10;99.90;;;;;;5028511;28;20513;-72
2022/06/15 00:28:26;;;;;;;25.77;23.75;;;11.10;99.90;;;;;;5020999;28;20049;-72
2022/06/15 00:30:53;;;;;;;25.65;23.83;;;10.90;99.90;;;;;;5020710;28;20055;-72
2022/06/15 00:33:27;;;;;;;26.02;23.98;;;10.80;99.90;;;;;;5037951;28;20480;-72
2022/06/15 00:35:57;;;;;;;26.70;24.48;;;10.80;99.90;;;;;;5017852;28;20432;-72
2022/06/15 00:38:47;;;;;;;25.60;23.67;;;10.70;99.90;;;;;;5001731;28;20132;-72
2022/06/15 00:41:26;;;;;;;24.33;22.48;;;10.70;99.90;;;;;;5008905;28;20068;-72
2022/06/15 00:43:59;;;;;;;25.02;23.27;;;10.60;99.90;;;;;;5001002;28;20060;-71
2022/06/15 00:46:42;;;;;;;24.42;22.52;;;10.50;99.90;;;;;;5025928;28;20045;-72
2022/06/15 00:49:27;;;;;;;25.23;23.13;;;10.50;99.90;;;;;;5019776;28;20051;-72
2022/06/15 00:51:59;;;;;;;25.65;23.35;;;10.30;99.90;;;;;;5008691;28;20865;-71
2022/06/15 00:54:26;;;;;;;24.90;23.10;;;10.20;99.90;;;;;;5009658;28;20235;-71
2022/06/15 00:56:55;;;;;;;24.52;22.67;;;10.30;99.90;;;;;;4991268;28;20049;-71
2022/06/15 00:59:32;;;;;;;24.83;22.60;;;10.30;99.90;;;;;;5020834;28;20056;-72
2022/06/15 01:02:00;;;;;;;24.25;21.98;;;10.40;99.90;;;;;;5017339;28;20068;-71
2022/06/15 01:04:34;;;;;;;23.38;21.52;;;10.40;99.90;;;;;;5020148;28;20121;-73
2022/06/15 01:07:04;;;;;;;24.23;22.13;;;10.40;99.90;;;;;;5020974;28;20510;-72
2022/06/15 01:09:37;;;;;;;25.00;22.88;;;10.40;99.90;;;;;;5006363;28;20044;-72
2022/06/15 01:12:16;;;;;;;24.02;22.02;;;10.50;99.90;;;;;;5002028;28;20041;-72
2022/06/15 01:15:04;;;;;;;26.95;24.48;;;10.50;99.90;;;;;;5003804;28;20470;-72
2022/06/15 01:17:42;;;;;;;24.83;22.83;;;10.50;99.90;;;;;;5019305;28;20056;-72
2022/06/15 01:20:34;;;;;;;24.75;22.77;;;10.80;99.90;;;;;;5017619;28;20066;-71
2022/06/15 01:23:26;;;;;;;26.35;24.25;;;11.00;99.90;;;;;;5022016;28;20060;-72
2022/06/15 01:26:31;;;;;;;25.23;23.23;;;11.10;99.90;;;;;;5006472;28;20068;-72
2022/06/15 01:29:04;;;;;;;26.02;23.75;;;11.10;99.90;;;;;;5016424;28;20393;-72
2022/06/15 01:31:43;;;;;;;25.60;23.40;;;11.10;99.90;;;;;;5018692;28;20065;-72
2022/06/15 01:34:39;;;;;;;25.98;23.80;;;11.10;99.90;;;;;;5003279;28;20223;-71
2022/06/15 01:37:18;;;;;;;26.20;24.05;;;10.90;99.90;;;;;;5019679;28;20477;-72
2022/06/15 01:39:58;;;;;;;25.92;23.70;;;10.70;99.90;;;;;;5011309;28;20045;-72
2022/06/15 01:42:33;;;;;;;26.30;24.10;;;10.50;99.90;;;;;;5035092;28;20667;-72
2022/06/15 01:45:18;;;;;;;26.52;24.25;;;10.40;99.90;;;;;;5021001;28;20287;-71
2022/06/15 01:47:48;;;;;;;25.38;23.55;;;10.40;99.90;;;;;;4979998;28;20054;-71
2022/06/15 01:50:27;;;;;;;26.17;24.17;;;10.30;99.90;;;;;;4991488;28;20052;-72
2022/06/15 01:53:20;;;;;;;26.48;24.27;;;10.20;99.90;;;;;;4982916;28;20088;-72
2022/06/15 01:56:21;;;;;;;27.15;24.52;;;10.20;99.90;;;;;;4999190;28;20064;-71
2022/06/15 01:58:56;;;;;;;24.17;22.25;;;10.20;99.90;;;;;;5015382;28;20137;-71
2022/06/15 02:01:37;;;;;;;;;;;10.20;99.90;;;;;;5014413;28;20061;-71
2022/06/15 02:04:15;;;;;;;24.52;22.27;;;10.30;99.90;;;;;;4999468;28;19925;-71
2022/06/15 02:06:49;;;;;;;24.42;22.13;;;10.40;99.90;;;;;;5019260;28;20296;-71
2022/06/15 02:09:29;;;;;;;25.70;23.30;;;10.30;99.90;;;;;;5001655;28;20327;-71
2022/06/15 02:12:00;;;;;;;24.58;22.52;;;10.30;99.90;;;;;;5016553;28;20045;-71
2022/06/15 02:14:41;;;;;;;26.00;23.83;;;10.40;99.90;;;;;;5016009;28;20267;-71
2022/06/15 02:17:16;;;;;;;25.35;23.35;;;10.40;99.90;;;;;;5015299;28;20065;-70
2022/06/15 02:19:47;;;;;;;24.80;22.77;;;10.40;99.90;;;;;;4995532;28;20268;-70
2022/06/15 02:22:23;;;;;;;25.05;23.17;;;10.40;99.90;;;;;;5026908;28;20048;-70
2022/06/15 02:24:55;;;;;;;24.98;23.00;;;10.50;99.90;;;;;;4999556;28;20054;-70
2022/06/15 02:27:26;;;;;;;24.20;22.27;;;10.40;99.90;;;;;;4995175;28;20052;-71
2022/06/15 02:29:59;;;;;;;26.65;24.10;;;10.50;99.90;;;;;;5004130;28;20141;-71
2022/06/15 02:32:28;;;;;;;25.67;23.65;;;10.40;99.90;;;;;;4994363;28;20052;-71
2022/06/15 02:34:54;;;;;;;25.52;23.13;;;10.40;99.90;;;;;;4995510;28;20049;-70
2022/06/15 02:37:21;;;;;;;25.50;23.27;;;10.20;99.90;;;;;;5008647;28;20115;-71
2022/06/15 02:39:48;;;;;;;25.52;23.30;;;10.40;99.90;;;;;;5015333;28;20077;-70
2022/06/15 02:42:29;;;;;;;25.35;23.35;;;10.60;99.90;;;;;;5011538;28;20584;-70
2022/06/15 02:45:06;;;;;;;25.97;23.77;;;10.70;99.90;;;;;;5013782;28;20045;-71
2022/06/15 02:47:36;;;;;;;25.88;23.92;;;10.80;99.90;;;;;;5014899;28;20422;-71
2022/06/15 02:50:05;;;;;;;25.27;23.27;;;10.90;99.90;;;;;;5013331;28;20115;-70
2022/06/15 02:52:38;;;;;;;26.38;24.38;;;10.80;99.90;;;;;;5002551;28;20041;-71
2022/06/15 02:55:07;;;;;;;27.23;24.85;;;10.80;99.90;;;;;;5001055;28;20525;-71
2022/06/15 02:58:02;;;;;;;25.95;24.02;;;10.60;99.90;;;;;;5013597;28;20330;-71
2022/06/15 03:00:36;;;;;;;26.52;24.45;;;10.40;99.90;;;;;;5009772;28;20049;-71
2022/06/15 03:03:06;;;;;;;26.70;24.40;;;10.30;99.90;;;;;;5000366;28;20080;-71
2022/06/15 03:05:34;;;;;;;27.17;24.75;;;10.10;99.90;;;;;;5007222;28;20061;-71
2022/06/15 03:08:01;;;;;;;25.60;23.40;;;10.10;99.90;;;;;;5010241;28;20050;-71
2022/06/15 03:10:29;;;;;;;26.13;23.63;;;10.10;99.90;;;;;;5015294;28;20072;-71
2022/06/15 03:12:57;;;;;;;25.75;23.50;;;10.10;99.90;;;;;;5014405;28;20049;-71
2022/06/15 03:15:24;;;;;;;25.42;23.10;;;10.20;99.90;;;;;;4998753;28;20160;-71
2022/06/15 03:17:52;;;;;;;27.63;24.85;;;10.10;99.90;;;;;;4998133;28;20860;-71
2022/06/15 03:20:20;;;;;;;24.63;22.83;;;9.80;99.90;;;;;;5010223;28;20049;-71
2022/06/15 03:22:49;;;;;;;24.23;22.63;;;10.00;99.90;;;;;;4999364;28;20616;-71
2022/06/15 03:25:22;;;;;;;24.08;22.30;;;10.30;99.90;;;;;;4998269;28;20054;-71
2022/06/15 03:27:50;;;;;;;25.95;23.35;;;10.50;99.90;;;;;;5000609;28;20070;-71
2022/06/15 03:30:17;;;;;;;26.58;24.45;;;10.40;99.90;;;;;;4998335;28;20297;-71
2022/06/15 03:32:52;;;;;;;;;;;10.10;99.90;;;;;;5014007;28;20253;-71
2022/06/15 03:35:19;;;;;;;26.48;24.33;;;10.10;99.90;;;;;;5004920;28;19979;-71
2022/06/15 03:37:50;;;;;;;26.10;24.02;;;10.10;99.90;;;;;;5001651;28;20129;-71
2022/06/15 03:40:26;;;;;;;26.40;24.27;;;10.00;99.90;;;;;;5012993;28;20137;-71
2022/06/15 03:42:54;;;;;;;27.13;24.70;;;10.00;99.90;;;;;;5010415;28;20061;-71
2022/06/15 03:45:23;;;;;;;25.55;23.58;;;9.90;99.90;;;;;;5012973;28;20127;-71
2022/06/15 03:47:50;;;;;;;26.40;24.13;;;9.90;99.90;;;;;;5014908;28;20049;-71
2022/06/15 03:50:17;;;;;;;26.05;24.00;;;9.90;99.90;;;;;;5009781;28;20050;-70
2022/06/15 03:52:48;;;;;;;25.95;23.92;;;9.90;99.90;;;;;;5001898;28;20111;-71
2022/06/15 03:55:16;;;;;;;26.20;24.00;;;9.90;99.90;;;;;;5012650;28;20533;-71
2022/06/15 03:57:43;;;;;;;27.98;25.83;;;9.70;99.90;;;;;;5016141;28;20264;-71
2022/06/15 04:00:17;;;;;;;29.35;26.83;;;9.70;99.90;;;;;;5013809;28;20072;-71
2022/06/15 04:02:51;;;;;;;28.23;26.00;;;9.60;99.90;;;;;;5002906;28;20050;-71
2022/06/15 04:05:49;;;;;;;27.45;25.15;;;9.60;99.90;;;;;;4993360;28;20045;-71
2022/06/15 04:08:35;;;;;;;27.08;24.88;;;9.60;99.90;;;;;;4996455;28;20545;-71
2022/06/15 04:11:58;;;;;;;26.60;24.60;;;9.70;99.90;;;;;;4999117;28;20053;-71
2022/06/15 04:14:00;;;;;;;26.08;24.00;;;9.70;99.90;;;;;;4996002;28;20056;-71
2022/06/15 04:16:27;;;;;;;26.85;24.60;;;9.70;99.90;;;;;;4997919;28;20068;-70
2022/06/15 04:18:55;;;;;;;25.95;23.63;;;9.80;99.90;;;;;;4998025;28;20046;-71
2022/06/15 04:21:23;;;;;;;24.88;22.92;;;10.00;99.90;;;;;;5016199;28;20509;-71
2022/06/15 04:23:51;;;;;;;22.85;20.90;;;10.30;99.90;;;;;;4981634;28;20041;-71
2022/06/15 04:26:19;;;;;;;24.45;22.10;;;10.40;99.90;;;;;;4998646;28;20046;-71
2022/06/15 04:28:48;;;;;;;24.13;22.23;;;10.60;99.90;;;;;;4997202;28;20092;-71
2022/06/15 04:31:30;;;;;;;26.60;24.60;;;10.80;99.90;;;;;;5014009;28;20042;-71
2022/06/15 04:33:57;;;;;;;29.48;26.98;;;11.50;99.90;;;;;;5005386;28;20054;-71
2022/06/15 04:36:27;;;;;;;26.83;24.77;;;12.00;99.90;;;;;;4985645;28;20116;-71
2022/06/15 04:39:00;;;;;;;28.83;26.67;;;12.30;99.90;;;;;;5002238;28;20056;-70
2022/06/15 04:41:38;;;;;;;30.02;27.73;;;12.80;99.90;;;;;;5016452;28;20123;-70
2022/06/15 04:44:07;;;;;;;29.13;26.92;;;13.10;99.90;;;;;;5017641;28;20226;-71
2022/06/15 04:46:35;;;;;;;28.35;26.45;;;13.30;99.90;;;;;;5000178;28;20045;-71
2022/06/15 04:49:03;;;;;;;28.52;26.30;;;13.50;99.90;;;;;;5000286;28;20243;-71
2022/06/15 04:51:42;;;;;;;29.63;27.23;;;13.90;99.90;;;;;;4985743;28;20129;-71
2022/06/15 04:54:10;;;;;;;27.85;25.83;;;14.20;99.90;;;;;;4994659;28;20041;-71
2022/06/15 04:56:42;;;;;;;27.55;25.65;;;14.80;99.90;;;;;;5007753;28;20579;-71
2022/06/15 04:59:11;;;;;;;27.05;25.13;;;15.30;99.90;;;;;;5014656;28;20065;-71
2022/06/15 05:01:39;;;;;;;26.80;25.00;;;15.60;99.90;;;;;;5002695;28;20118;-70
2022/06/15 05:04:06;;;;;;;26.25;24.33;;;15.60;99.90;;;;;;5006083;28;20041;-72
2022/06/15 05:06:39;;;;;;;26.27;24.17;;;15.40;99.90;;;;;;4998147;28;20045;-71
2022/06/15 05:09:12;;;;;;;25.92;23.92;;;15.20;99.90;;;;;;5014709;28;20150;-70
2022/06/15 05:11:41;;;;;;;26.27;24.17;;;15.10;99.90;;;;;;5015015;28;20045;-71
2022/06/15 05:14:08;;;;;;;26.38;24.40;;;15.10;99.90;;;;;;5014855;28;20394;-71
2022/06/15 05:16:40;;;;;;;26.83;24.83;;;15.40;99.90;;;;;;4997112;28;20030;-71
2022/06/15 05:19:13;;;;;;;27.08;25.00;;;15.50;99.90;;;;;;4996540;28;20058;-71
2022/06/15 05:21:44;;;;;;;26.38;24.50;;;15.90;99.90;;;;;;4989295;28;20053;-71
2022/06/15 05:24:14;;;;;;;26.98;24.95;;;16.00;99.90;;;;;;5004975;28;20038;-71
2022/06/15 05:27:00;;;;;;;25.60;23.85;;;16.50;99.90;;;;;;4994058;28;20050;-71
2022/06/15 05:29:27;;;;;;;26.40;24.27;;;16.20;99.90;;;;;;5003062;28;20055;-72
2022/06/15 05:32:08;;;;;;;27.25;25.10;;;16.60;99.90;;;;;;4999790;28;20089;-71
2022/06/15 05:34:35;;;;;;;26.25;24.17;;;16.90;99.90;;;;;;4993824;28;21151;-71
2022/06/15 05:37:04;;;;;;;26.33;24.17;;;17.00;99.90;;;;;;4994586;28;20057;-71
2022/06/15 05:39:35;;;;;;;25.73;23.70;;;17.40;99.90;;;;;;5004018;28;20540;-71
2022/06/15 05:42:04;;;;;;;25.83;23.77;;;17.30;99.90;;;;;;5013047;28;20041;-70
2022/06/15 05:44:40;;;;;;;24.92;23.02;;;17.50;99.90;;;;;;4998302;28;20871;-69
2022/06/15 05:47:11;;;;;;;25.58;23.75;;;17.10;99.90;;;;;;5014219;28;20045;-70
2022/06/15 05:50:01;;;;;;;26.85;24.88;;;17.20;99.90;;;;;;5016854;28;20373;-73
2022/06/15 05:52:43;;;;;;;25.45;23.90;;;17.30;99.90;;;;;;5011891;28;20053;-69
2022/06/15 05:55:10;;;;;;;26.50;24.70;;;17.30;99.90;;;;;;5005622;28;20049;-70
2022/06/15 05:57:37;;;;;;;25.75;23.92;;;16.80;99.90;;;;;;5015581;28;20561;-68
2022/06/15 06:00:05;;;;;;;26.83;24.48;;;16.90;99.90;;;;;;5016338;28;20532;-71
2022/06/15 06:02:40;;;;;;;27.38;24.83;;;16.90;99.90;;;;;;5014684;28;20056;-70
2022/06/15 06:05:08;;;;;;;25.85;24.08;;;17.00;99.90;;;;;;5001266;28;20731;-72
2022/06/15 06:07:35;;;;;;;26.15;24.27;;;17.40;99.90;;;;;;4981440;28;20072;-73
2022/06/15 06:10:02;;;;;;;25.92;23.92;;;17.60;99.90;;;;;;4983362;28;20064;-70
2022/06/15 06:12:29;;;;;;;26.50;24.35;;;17.30;99.90;;;;;;4998779;28;20041;-70
2022/06/15 06:14:56;;;;;;;26.50;24.48;;;17.30;99.90;;;;;;5018355;28;20056;-72
2022/06/15 06:17:23;;;;;;;26.02;24.27;;;17.10;99.90;;;;;;5034411;28;20041;-75
2022/06/15 06:19:50;;;;;;;25.92;23.83;;;17.40;99.90;;;;;;5038193;28;20068;-76
2022/06/15 06:22:17;;;;;;;25.92;23.95;;;17.40;99.90;;;;;;5007878;28;20056;-74
2022/06/15 06:24:48;;;;;;;26.88;24.50;;;17.80;99.90;;;;;;5032159;28;20646;-75
2022/06/15 06:27:16;;;;;;;25.90;23.85;;;18.10;99.90;;;;;;5015311;28;20142;-76
2022/06/15 06:29:43;;;;;;;25.88;23.92;;;18.10;99.90;;;;;;5037335;28;20053;-76
2022/06/15 06:32:13;;;;;;;27.33;24.85;;;18.30;99.90;;;;;;5018877;28;20576;-74
2022/06/15 06:34:40;;;;;;;26.05;24.35;;;18.40;99.90;;;;;;5034752;28;20371;-73
2022/06/15 06:37:07;;;;;;;27.38;25.27;;;19.00;99.90;;;;;;5019365;28;20037;-73
2022/06/15 06:39:35;;;;;;;26.33;24.30;;;19.40;99.90;;;;;;5019605;28;20477;-74
2022/06/15 06:42:04;;;;;;;26.73;24.75;;;19.50;99.90;;;;;;5035978;28;20080;-75
2022/06/15 06:44:34;;;;;;;25.67;24.17;;;20.10;99.90;;;;;;5010318;28;20057;-75
2022/06/15 06:47:01;;;;;;;25.92;24.15;;;20.30;99.90;;;;;;5000245;28;20422;-75
2022/06/15 06:49:29;;;;;;;25.88;24.27;;;19.50;99.90;;;;;;4999734;28;20057;-76
2022/06/15 06:51:57;;;;;;;26.02;23.90;;;19.60;99.90;;;;;;5018023;28;20045;-76
2022/06/15 06:54:24;;;;;;;25.48;23.80;;;19.70;99.90;;;;;;5016194;28;20052;-79
2022/06/15 06:56:52;;;;;;;26.45;24.65;;;19.20;99.90;;;;;;5002475;28;20140;-76
2022/06/15 06:59:25;;;;;;;26.17;24.23;;;19.50;99.90;;;;;;5022933;28;20044;-74
2022/06/15 07:01:52;;;;;;;25.75;24.13;;;20.00;99.90;;;;;;5053110;28;20288;-77
2022/06/15 07:04:19;;;;;;;27.15;25.27;;;20.40;99.90;;;;;;5018831;28;20330;-76
2022/06/15 07:06:47;;;;;;;24.48;23.15;;;20.80;99.90;;;;;;5037276;28;20049;-77
2022/06/15 07:09:14;;;;;;;25.55;23.85;;;20.50;99.90;;;;;;5036813;28;20312;-75
2022/06/15 07:11:43;;;;;;;26.65;24.85;;;20.50;99.90;;;;;;5018318;28;20041;-75
2022/06/15 07:14:12;;;;;;;27.17;25.27;;;21.00;99.90;;;;;;5002431;28;20471;-75
2022/06/15 07:16:41;;;;;;;26.80;24.98;;;21.20;99.90;;;;;;5017977;28;20045;-74
2022/06/15 07:19:08;;;;;;;26.60;25.00;;;21.00;99.90;;;;;;5037087;28;20513;-72
2022/06/15 07:21:35;;;;;;;27.13;25.42;;;20.80;99.90;;;;;;5020737;28;20049;-74
2022/06/15 07:24:02;;;;;;;25.58;23.98;;;21.00;99.90;;;;;;5002643;28;20072;-75
2022/06/15 07:26:41;;;;;;;27.40;25.23;;;21.30;99.90;;;;;;5011243;28;20040;-75
2022/06/15 07:29:10;;;;;;;26.95;25.08;;;21.40;99.90;;;;;;5015590;28;20416;-74
2022/06/15 07:31:42;;;;;;;27.05;25.23;;;21.30;99.90;;;;;;5017067;28;20060;-75
2022/06/15 07:34:09;;;;;;;26.25;24.48;;;21.40;99.90;;;;;;5035893;28;20057;-75
2022/06/15 07:36:38;;;;;;;27.10;25.38;;;21.70;99.90;;;;;;5035419;28;20413;-74
2022/06/15 07:39:06;;;;;;;26.80;25.05;;;22.10;99.90;;;;;;4997906;28;20037;-75
2022/06/15 07:41:34;;;;;;;26.55;24.77;;;22.50;99.90;;;;;;4998162;28;20421;-73
2022/06/15 07:44:01;;;;;;;26.95;24.98;;;22.60;99.90;;;;;;4988041;28;20049;-76
2022/06/15 07:46:28;;;;;;;26.75;25.13;;;22.70;99.90;;;;;;5039714;28;20064;-75
2022/06/15 07:51:50;;;;;;;26.40;24.75;;;22.80;99.90;;;;;;5037997;28;20520;-73
2022/06/15 07:54:18;;;;;;;26.65;24.77;;;22.80;99.90;;;;;;5004675;28;20099;-74
2022/06/15 07:56:46;;;;;;;27.48;25.60;;;23.00;99.90;;;;;;5003939;28;20417;-75
2022/06/15 07:59:14;;;;;;;27.20;25.30;;;23.10;99.90;;;;;;4986607;28;20057;-74
2022/06/15 08:01:42;;;;;;;26.77;24.88;;;23.00;99.90;;;;;;5001225;28;20517;-75
2022/06/15 08:04:10;;;;;;;27.42;25.70;;;23.20;99.90;;;;;;5031593;28;20071;-77
2022/06/15 08:06:41;;;;;;;27.73;25.77;;;23.30;99.90;;;;;;5039063;28;20131;-74
2022/06/15 08:09:09;;;;;;;28.55;26.55;;;23.60;99.90;;;;;;5033530;28;20311;-75
2022/06/15 08:12:11;;;;;;;28.00;26.08;;;23.70;99.90;;;;;;5033807;28;20244;-74
2022/06/15 08:14:35;;;;;;;27.88;26.00;;;24.00;99.90;;;;;;5020093;28;20064;-75
2022/06/15 08:17:05;;;;;;;28.55;26.52;;;24.40;99.90;;;;;;5020498;28;20500;-77
2022/06/15 08:19:36;;;;;;;26.63;24.85;;;24.60;99.90;;;;;;5038981;28;20107;-75
2022/06/15 08:22:04;;;;;;;27.23;25.33;;;24.60;99.90;;;;;;5038339;28;20033;-74
2022/06/15 08:24:31;;;;;;;27.23;25.35;;;24.60;99.90;;;;;;4997018;28;20052;-74
2022/06/15 08:26:58;;;;;;;27.70;25.33;;;24.60;99.90;;;;;;5022186;28;20186;-74
2022/06/15 08:29:25;;;;;;;27.25;25.40;;;24.50;99.90;;;;;;5002339;28;20065;-75
2022/06/15 08:31:56;;;;;;;27.95;26.02;;;24.50;99.90;;;;;;5034229;28;20291;-73
2022/06/15 08:34:25;;;;;;;27.70;25.90;;;24.40;99.90;;;;;;5019463;28;20049;-74
2022/06/15 08:36:52;;;;;;;28.15;25.98;;;24.60;99.90;;;;;;5019458;28;20041;-75
2022/06/15 08:39:19;;;;;;;28.50;26.48;;;24.90;99.90;;;;;;5016319;28;20088;-75
2022/06/15 08:42:09;;;;;;;27.77;26.17;;;25.00;99.90;;;;;;5022291;28;20045;-74
2022/06/15 08:45:15;;;;;;;28.85;27.05;;;25.20;99.90;;;;;;5037068;28;20049;-73
2022/06/15 08:48:00;;;;;;;28.48;26.67;;;24.20;99.90;;;;;;5012923;28;20049;-76
2022/06/15 08:50:35;;;;;;;28.77;26.95;;;23.80;99.90;;;;;;5000152;28;20056;-74
2022/06/15 08:53:12;;;;;;;;;;;24.50;99.90;;;;;;4989409;28;20261;-75
2022/06/15 08:55:49;;;;;;;29.65;27.65;;;25.10;99.90;;;;;;5031737;28;19931;-73
2022/06/15 08:58:22;;;;;;;29.50;27.45;;;25.40;99.90;;;;;;5001072;28;20318;-76
2022/06/15 09:00:53;;;;;;;29.42;27.55;;;26.10;99.90;;;;;;5036282;28;20055;-74
2022/06/15 09:03:32;;;;;;;28.88;26.95;;;26.20;99.90;;;;;;5037930;28;20197;-76
2022/06/15 09:06:30;;;;;;;29.70;27.88;;;26.10;99.90;;;;;;5020282;28;20185;-76
2022/06/15 09:09:06;;;;;;;30.77;28.75;;;26.10;99.90;;;;;;5003938;28;20129;-76
2022/06/15 09:15:02;;;;;;;30.67;28.48;;;26.60;99.90;;;;;;5037921;28;20045;-77
2022/06/15 09:17:31;;;;;;;30.38;28.27;;;26.90;99.90;;;;;;5017913;28;20277;-74
2022/06/15 09:20:16;;;;;;;31.08;29.00;;;26.90;98.20;;;;;;5000769;28;20061;-77
2022/06/15 09:23:05;;;;;;;;;;;26.90;98.30;;;;;;5020211;28;20057;-75
2022/06/15 09:25:53;;;;;;;30.38;28.42;;;26.80;98.80;;;;;;4988551;28;19945;-76
2022/06/15 09:28:28;;;;;;;29.77;28.05;;;26.80;99.40;;;;;;5000474;28;20053;-75
2022/06/15 09:31:07;;;;;;;30.85;28.10;;;26.80;96.90;;;;;;5006157;28;20053;-73
2022/06/15 09:33:40;;;;;;;29.05;27.25;;;26.70;97.10;;;;;;5003405;28;20053;-76
2022/06/15 09:36:17;;;;;;;29.48;27.70;;;26.90;97.80;;;;;;5019758;28;20040;-75
2022/06/15 09:38:44;;;;;;;28.50;26.70;;;27.10;97.10;;;;;;5037564;28;20551;-76
2022/06/15 09:41:33;;;;;;;29.70;27.65;;;27.00;96.90;;;;;;5019876;28;20493;-73
2022/06/15 09:44:06;;;;;;;31.38;29.17;;;27.10;96.40;;;;;;5019279;28;20124;-77
2022/06/15 09:47:06;;;;;;;30.50;28.70;;;26.00;95.70;;;;;;5021375;28;20045;-74
2022/06/15 09:50:04;;;;;;;30.48;28.58;;;26.40;96.60;;;;;;5019774;28;20505;-76
2022/06/15 09:53:03;;;;;;;31.52;29.33;;;26.70;95.10;;;;;;4987985;28;20046;-76
2022/06/15 09:55:33;;;;;;;30.48;28.35;;;27.00;94.80;;;;;;5013721;28;20720;-74
2022/06/15 09:58:23;;;;;;;31.45;29.55;;;27.30;94.60;;;;;;5006820;28;20073;-73
2022/06/15 10:00:50;;;;;;;30.73;28.60;;;27.50;94.40;;;;;;5019079;28;20045;-74
2022/06/15 10:03:23;;;;;;;31.95;29.85;;;26.80;94.80;;;;;;5036848;28;20048;-73
2022/06/15 10:05:54;;;;;;;32.80;30.65;;;25.90;94.80;;;;;;5019335;28;20060;-74
2022/06/15 10:08:21;;;;;;;31.50;29.42;;;25.10;97.50;;;;;;5018767;28;20102;-73
2022/06/15 10:10:52;;;;;;;30.98;29.08;;;25.00;96.20;;;;;;5036860;28;20053;-74
2022/06/15 10:13:19;;;;;;;31.20;29.00;;;25.10;98.00;;;;;;5020675;28;20053;-75
2022/06/15 10:15:54;;;;;;;31.17;29.10;;;25.70;97.00;;;;;;5003679;28;20269;-76
2022/06/15 10:18:26;;;;;;;31.63;29.63;;;26.40;97.20;;;;;;5037650;28;20374;-76
2022/06/15 10:21:04;;;;;;;30.50;28.52;;;27.00;95.70;;;;;;5015357;28;20435;-75
2022/06/15 10:23:47;;;;;;;29.67;28.00;;;27.40;96.10;;;;;;4984075;28;20045;-74
2022/06/15 10:26:32;;;;;;;30.58;28.73;;;27.60;94.90;;;;;;4987551;28;20295;-75
2022/06/15 10:29:26;;;;;;;31.05;29.25;;;27.80;93.90;;;;;;5018517;28;20389;-74
2022/06/15 10:32:08;;;;;;;32.72;30.42;;;27.90;94.10;;;;;;5019379;28;20049;-75
2022/06/15 10:34:50;;;;;;;32.00;29.75;;;27.90;93.50;;;;;;5036273;28;20072;-74
2022/06/15 10:37:34;;;;;;;31.92;29.83;;;27.80;92.90;;;;;;5019395;28;20052;-74
2022/06/15 10:40:17;;;;;;;31.17;29.33;;;27.70;94.00;;;;;;4994757;28;20050;-76
2022/06/15 10:42:51;;;;;;;32.13;30.00;;;27.90;93.90;;;;;;5019959;28;20064;-76
2022/06/15 10:45:42;;;;;;;32.13;30.23;;;27.50;93.50;;;;;;5000430;28;20310;-77
2022/06/15 10:48:15;;;;;;;32.95;31.02;;;27.70;94.00;;;;;;5019971;28;20492;-76
2022/06/15 10:50:51;;;;;;;33.00;31.00;;;27.80;93.30;;;;;;5017804;28;20041;-76
2022/06/15 10:53:44;;;;;;;31.88;30.08;;;27.80;94.50;;;;;;5002403;28;20069;-74
2022/06/15 11:02:44;;;;;;;33.45;30.90;;;27.90;94.90;;;;;;5002020;28;20245;-74
2022/06/15 11:05:18;;;;;;;32.40;30.17;;;28.20;93.50;;;;;;4999341;28;20307;-74
2022/06/15 11:08:03;;;;;;;32.97;30.98;;;28.30;92.50;;;;;;4999116;28;20049;-75
2022/06/15 11:10:45;;;;;;;33.47;31.20;;;28.30;94.40;;;;;;5000203;28;20046;-74
2022/06/15 11:13:29;;;;;;;33.85;31.55;;;28.20;94.10;;;;;;4998038;28;20201;-76
2022/06/15 11:19:00;;;;;;;34.10;32.00;;;28.30;94.10;;;;;;5018287;28;20423;-77
2022/06/15 11:21:35;;;;;;;34.55;32.45;;;27.70;93.40;;;;;;5018546;28;20288;-74
2022/06/15 11:24:29;;;;;;;32.58;30.15;;;27.30;94.40;;;;;;5008496;28;20099;-75
2022/06/15 11:27:09;;;;;;;32.90;31.00;;;27.40;94.90;;;;;;5007908;28;20053;-75
2022/06/15 11:29:42;;;;;;;32.45;30.65;;;26.80;94.00;;;;;;5000945;28;20474;-74
2022/06/15 11:32:25;;;;;;;34.45;32.25;;;25.90;95.80;;;;;;4997852;28;20129;-77
2022/06/15 11:35:11;;;;;;;33.08;31.27;;;25.90;94.60;;;;;;4997539;28;20415;-74
2022/06/15 11:37:51;;;;;;;33.47;31.58;;;26.20;94.40;;;;;;5012906;28;20543;-75
2022/06/15 11:40:31;;;;;;;32.35;30.58;;;26.30;94.80;;;;;;5004061;28;20053;-74
2022/06/15 11:42:59;;;;;;;32.25;30.35;;;27.00;94.40;;;;;;4998477;28;20084;-75
2022/06/15 11:45:39;;;;;;;31.85;30.05;;;27.50;94.00;;;;;;4998342;28;20049;-76
2022/06/15 11:48:35;;;;;;;31.65;29.95;;;27.50;93.20;;;;;;5011633;28;20057;-76
2022/06/15 11:51:29;;;;;;;31.55;29.73;;;27.20;93.80;;;;;;4998676;28;20406;-75
2022/06/15 11:54:14;;;;;;;32.40;30.45;;;27.60;94.50;;;;;;4985601;28;20057;-76
2022/06/15 11:57:12;;;;;;;31.85;29.83;;;27.70;92.90;;;;;;4984940;28;20507;-76
2022/06/15 12:00:07;;;;;;;33.00;31.00;;;27.90;93.00;;;;;;4988159;28;20042;-75
2022/06/15 12:03:17;;;;;;;33.00;31.10;;;28.20;92.90;;;;;;5000665;28;20271;-75
2022/06/15 12:06:08;;;;;;;33.40;31.38;;;28.00;93.40;;;;;;5002388;28;20269;-75
2022/06/15 12:08:56;;;;;;;32.63;30.83;;;28.10;92.30;;;;;;4996857;28;20072;-74
2022/06/15 12:14:19;;;;;;;33.72;31.63;;;28.20;92.50;;;;;;5016726;28;20762;-73
2022/06/15 12:16:58;;;;;;;33.22;31.23;;;28.10;91.40;;;;;;4999138;28;20415;-74
2022/06/15 12:19:36;;;;;;;33.60;31.50;;;28.20;91.50;;;;;;5008593;28;20135;-73
2022/06/15 12:22:21;;;;;;;33.85;31.95;;;27.40;91.60;;;;;;4986235;28;20047;-73
2022/06/15 12:24:55;;;;;;;32.47;30.67;;;26.90;91.90;;;;;;5027819;28;20295;-77
2022/06/15 12:27:56;;;;;;;32.15;30.33;;;26.70;91.90;;;;;;5031745;28;20037;-75
2022/06/15 12:30:48;;;;;;;32.10;30.30;;;26.80;93.10;;;;;;5020029;23;20414;-76
2022/06/15 12:33:36;;;;;;;32.17;30.08;;;27.30;92.10;;;;;;5004215;28;20050;-76
2022/06/15 12:36:09;;;;;;;33.33;31.20;;;27.80;91.40;;;;;;5003847;28;20115;-77
2022/06/15 12:38:55;;;;;;;31.67;29.90;;;27.90;91.20;;;;;;4987561;28;20042;-76
2022/06/15 12:44:53;;;;;;;31.80;29.92;;;28.10;92.00;;;;;;5007399;28;20067;-77
2022/06/15 12:47:23;;;;;;;31.20;29.13;;;28.00;91.80;;;;;;4983037;28;20050;-76
2022/06/15 12:50:30;;;;;;;32.55;30.55;;;28.20;91.60;;;;;;4987307;28;20046;-75
2022/06/15 12:53:05;;;;;;;33.40;31.55;;;26.80;92.40;;;;;;4993240;28;20456;-76
2022/06/15 12:55:46;;;;;;;35.03;33.15;;;26.40;92.90;;;;;;4962033;28;20042;-75
2022/06/15 12:58:42;;;;;;;35.42;33.35;;;26.70;92.60;;;;;;4975729;28;20541;-75
2022/06/15 13:01:19;;;;;;;32.83;30.75;;;27.60;91.30;;;;;;4997553;28;20054;-76
2022/06/15 13:03:49;;;;;;;32.38;30.48;;;28.00;91.30;;;;;;4968777;28;20153;-76
2022/06/15 13:06:24;;;;;;;33.40;31.33;;;28.00;90.60;;;;;;4970310;28;20073;-76
2022/06/15 13:09:00;;;;;;;33.40;31.70;;;28.30;91.30;;;;;;4954229;28;20460;-76
2022/06/15 13:11:29;;;;;;;33.45;31.27;;;28.50;90.90;;;;;;4980331;28;20042;-76
2022/06/15 13:14:15;;;;;;;33.10;31.05;;;28.50;90.00;;;;;;4969988;28;20065;-76
2022/06/15 13:16:55;;;;;;;34.25;32.15;;;28.30;90.00;;;;;;4986005;28;20042;-76
2022/06/15 13:19:46;;;;;;;32.72;30.92;;;28.60;90.90;;;;;;4969244;28;20439;-76
2022/06/15 13:22:28;;;;;;;33.10;31.10;;;28.40;90.20;;;;;;4968857;28;20059;-77
2022/06/15 13:24:55;;;;;;;31.17;29.48;;;28.60;89.30;;;;;;5009566;28;20136;-76
2022/06/15 13:27:32;;;;;;;32.58;30.67;;;28.70;89.50;;;;;;4995997;28;20049;-76
2022/06/15 13:30:22;;;;;;;31.60;29.88;;;28.80;90.60;;;;;;4977325;28;20660;-76